This is the latest recevied weather packets stored in our database for station/object NE8U. If no packets are shown the sender has not sent any weather packets the latest 10 day(s).
| Time | Temp. | Humidity | Pressure | Rain* | Wind** | Luminosity | Snow |
|---|---|---|---|---|---|---|---|
| 1777958402 | 14.44° C | 92% | 1016.4 hPa | 0 mm | - | 0 W/m² | - |
| 1777958098 | 14.44° C | 93% | 1016.3 hPa | 0 mm | - | 0 W/m² | - |
| 1777957797 | 14.44° C | 92% | 1016.2 hPa | 0 mm | - | 0 W/m² | - |
| 1777957495 | 14.44° C | 92% | 1016.3 hPa | 1.27 mm | - | 0 W/m² | - |
| 1777957192 | 14.44° C | 92% | 1016.3 hPa | 0 mm | - | 0 W/m² | - |
| 1777956888 | 14.44° C | 92% | 1016 hPa | 0 mm | - | 0 W/m² | - |
| 1777956585 | 14.44° C | 92% | 1016.4 hPa | 1.78 mm | - | 0 W/m² | - |
| 1777956283 | 13.89° C | 92% | 1016.4 hPa | 1.78 mm | - | 0 W/m² | - |
| 1777955978 | 13.89° C | 92% | 1016.4 hPa | 0 mm | - | 0 W/m² | - |
| 1777955675 | 13.89° C | 91% | 1016.3 hPa | 1.27 mm | - | 0 W/m² | - |
| 1777955372 | 13.89° C | 90% | 1016.3 hPa | 1.27 mm | - | 0 W/m² | - |
| 1777955068 | 13.89° C | 88% | 1016.6 hPa | 0 mm | - | 0 W/m² | - |
| 1777954765 | 13.89° C | 86% | 1016.7 hPa | 1.78 mm | - | 0 W/m² | - |
| 1777954462 | 13.89° C | 84% | 1016.6 hPa | 1.78 mm | - | 0 W/m² | - |
| 1777954159 | 14.44° C | 81% | 1016.5 hPa | 3.05 mm | - | 0 W/m² | - |
| 1777953857 | 15° C | 78% | 1016.7 hPa | 1.78 mm | - | 0 W/m² | - |
| 1777953553 | 16.11° C | 72% | 1016.4 hPa | 1.78 mm | - | 0 W/m² | - |
| 1777953249 | 16.67° C | 68% | 1016.6 hPa | 1.78 mm | - | 0 W/m² | - |
| 1777952947 | 17.78° C | 64% | 1016.6 hPa | 0 mm | - | 0 W/m² | - |
| 1777952643 | 17.78° C | 62% | 1016.4 hPa | 0 mm | - | 0 W/m² | - |
| 1777952341 | 18.33° C | 59% | 1015.9 hPa | 0 mm | - | 0 W/m² | - |
| 1777952037 | 18.33° C | 60% | 1015.6 hPa | 0 mm | - | 0 W/m² | - |
| 1777951735 | 18.33° C | 58% | 1015.2 hPa | 0 mm | - | 0 W/m² | - |
| 1777951432 | 17.78° C | 60% | 1015.2 hPa | 0 mm | - | 0 W/m² | - |
| 1777951128 | 17.78° C | 58% | 1014.9 hPa | 0 mm | - | 0 W/m² | - |
* Rain latest hour (hover to see other rain measurements)
** Current wind speed in m/s (hover to see current wind gust speed)